Terminal Aerodrome Forecast
Issued by NWS Portland, ME

Home | Current Version | Previous Version | Text Only | Print | Product List | Glossary On
Versions: 1 2 3 4 5 6 7 8 9 10 11 12 13 14 15 16
459
FTUS41 KGYX 231740
TAFCON
TAF
KCON 231740Z 2318/2418 15007KT P6SM FEW020 BKN250
     FM240000 VRB03KT P6SM BKN020
     FM240400 VRB03KT 1SM BR OVC002
     FM241500 15006KT 5SM BR BKN012=

USA.gov is the U.S. government's official web portal to all federal, state and local government web resources and services.